createdAt,value
2022-10-09T00:01:32.436Z,27.30
2022-10-09T00:04:01.250Z,27.20
2022-10-09T00:06:35.864Z,27.10
2022-10-09T00:09:05.187Z,27.20
2022-10-09T00:11:35.122Z,27.30
2022-10-09T00:14:04.583Z,27.30
2022-10-09T00:16:33.331Z,27.20
2022-10-09T00:19:01.497Z,27.20
2022-10-09T00:21:32.704Z,27.20
2022-10-09T00:24:03.172Z,27.40
2022-10-09T00:26:31.765Z,27.30
2022-10-09T00:29:00.192Z,27.20
2022-10-09T00:31:28.639Z,27.20
2022-10-09T00:33:57.012Z,27.20
2022-10-09T00:36:26.837Z,27.40
2022-10-09T00:38:55.953Z,27.40
2022-10-09T00:41:29.812Z,27.30
2022-10-09T00:44:25.196Z,27.20
2022-10-09T00:46:53.532Z,27.10
2022-10-09T00:49:26.356Z,27.00
2022-10-09T00:51:58.393Z,27.00
2022-10-09T00:54:27.883Z,27.10
2022-10-09T00:56:56.446Z,27.10
2022-10-09T00:59:25.415Z,26.90
2022-10-09T01:01:53.990Z,26.80
2022-10-09T01:04:22.109Z,26.80
2022-10-09T01:07:14.522Z,26.90
2022-10-09T01:09:47.560Z,27.00
2022-10-09T01:12:27.796Z,26.90
2022-10-09T01:15:24.743Z,27.00
2022-10-09T01:18:13.413Z,26.90
2022-10-09T01:21:14.485Z,26.80
2022-10-09T01:23:48.862Z,26.70
2022-10-09T01:26:55.544Z,26.70
2022-10-09T01:29:27.276Z,26.80
2022-10-09T01:31:56.560Z,26.70
2022-10-09T01:34:25.478Z,26.60
2022-10-09T01:36:55.763Z,26.50
2022-10-09T01:39:25.810Z,26.50
2022-10-09T01:41:55.336Z,26.70
2022-10-09T01:44:29.453Z,26.80
2022-10-09T01:46:57.973Z,26.70
2022-10-09T01:49:35.170Z,26.50
2022-10-09T01:52:18.271Z,26.50
2022-10-09T01:55:01.738Z,26.50
2022-10-09T01:57:51.318Z,26.70
2022-10-09T02:00:20.209Z,26.90
2022-10-09T02:02:50.895Z,26.80
2022-10-09T02:05:23.953Z,26.60
2022-10-09T02:07:53.115Z,26.50
2022-10-09T02:10:22.564Z,26.60
2022-10-09T02:13:01.835Z,26.60
2022-10-09T02:15:39.372Z,26.70
2022-10-09T02:18:12.803Z,26.80
2022-10-09T02:20:46.027Z,26.80
2022-10-09T02:23:15.649Z,26.70
2022-10-09T02:25:44.253Z,26.50
2022-10-09T02:28:12.575Z,26.50
2022-10-09T02:31:11.060Z,26.40
2022-10-09T02:33:39.339Z,26.50
2022-10-09T02:36:07.414Z,26.60
2022-10-09T02:38:35.661Z,26.60
2022-10-09T02:41:03.862Z,26.50
2022-10-09T02:43:31.994Z,26.40
2022-10-09T02:46:00.154Z,26.50
2022-10-09T02:48:28.356Z,26.50
2022-10-09T02:50:56.471Z,26.50
2022-10-09T02:53:24.795Z,26.50
2022-10-09T02:55:52.853Z,26.50
2022-10-09T02:58:21.098Z,26.40
2022-10-09T03:00:53.443Z,26.30
2022-10-09T03:03:21.821Z,26.10
2022-10-09T03:05:59.396Z,26.00
2022-10-09T03:08:27.692Z,26.10
2022-10-09T03:10:55.995Z,26.10
2022-10-09T03:13:24.663Z,25.90
2022-10-09T03:15:52.687Z,25.90
2022-10-09T03:18:21.078Z,25.80
2022-10-09T03:20:49.220Z,25.90
2022-10-09T03:23:17.351Z,26.00
2022-10-09T03:25:45.473Z,26.00
2022-10-09T03:28:13.654Z,26.00
2022-10-09T03:30:42.133Z,26.20
2022-10-09T03:33:10.409Z,26.20
2022-10-09T03:35:38.528Z,26.00
2022-10-09T03:38:06.656Z,25.90
2022-10-09T03:40:34.828Z,25.90
2022-10-09T03:43:02.959Z,25.90
2022-10-09T03:45:31.251Z,26.00
2022-10-09T03:47:59.286Z,26.10
2022-10-09T03:50:27.629Z,26.20
2022-10-09T03:52:55.886Z,26.30
2022-10-09T03:55:23.897Z,26.30
2022-10-09T03:57:52.011Z,26.30
2022-10-09T04:00:20.346Z,26.20
2022-10-09T04:02:48.820Z,26.30
2022-10-09T04:05:17.551Z,26.40
2022-10-09T04:07:45.801Z,26.40
2022-10-09T04:10:14.141Z,26.50
2022-10-09T04:12:42.608Z,26.50
2022-10-09T04:15:11.280Z,26.50
2022-10-09T04:17:39.561Z,26.40
2022-10-09T04:20:08.194Z,26.20
2022-10-09T04:22:36.293Z,26.10
2022-10-09T04:25:04.986Z,26.10
2022-10-09T04:27:33.280Z,26.20
2022-10-09T04:30:01.547Z,26.30
2022-10-09T04:32:29.663Z,26.20
2022-10-09T04:34:57.782Z,26.10
2022-10-09T04:37:25.881Z,26.10
2022-10-09T04:39:54.126Z,26.00
2022-10-09T04:42:22.139Z,26.10
2022-10-09T04:44:50.299Z,26.20
2022-10-09T04:47:18.581Z,26.20
2022-10-09T04:49:46.795Z,26.20
2022-10-09T04:52:15.009Z,26.10
2022-10-09T04:54:43.121Z,26.00
2022-10-09T04:57:11.277Z,25.90
2022-10-09T04:59:39.487Z,25.80
2022-10-09T05:02:07.762Z,25.80
2022-10-09T05:04:37.991Z,25.90
2022-10-09T05:07:06.218Z,25.90
2022-10-09T05:09:34.318Z,25.90
2022-10-09T05:12:02.440Z,25.80
2022-10-09T05:14:30.565Z,25.70
2022-10-09T05:17:13.630Z,25.60
2022-10-09T05:19:42.610Z,25.70
2022-10-09T05:22:10.625Z,25.80
2022-10-09T05:24:38.855Z,25.80
2022-10-09T05:27:07.074Z,25.80
2022-10-09T05:29:35.173Z,25.70
2022-10-09T05:32:03.217Z,25.60
2022-10-09T05:34:31.533Z,25.50
2022-10-09T05:36:59.650Z,25.50
2022-10-09T05:39:27.845Z,25.50
2022-10-09T05:41:55.988Z,25.60
2022-10-09T05:44:24.296Z,25.80
2022-10-09T05:46:52.548Z,25.80
2022-10-09T05:49:20.822Z,25.70
2022-10-09T05:51:48.886Z,25.60
2022-10-09T05:54:18.889Z,25.50
2022-10-09T05:56:47.397Z,25.50
2022-10-09T05:59:17.906Z,25.60
2022-10-09T06:01:51.335Z,25.80
2022-10-09T06:04:24.618Z,25.80
2022-10-09T06:06:53.058Z,25.90
2022-10-09T06:09:23.602Z,25.90
2022-10-09T06:11:53.348Z,26.00
2022-10-09T06:14:22.296Z,25.80
2022-10-09T06:16:50.835Z,25.60
2022-10-09T06:19:20.343Z,25.50
2022-10-09T06:21:48.767Z,25.40
2022-10-09T06:24:28.296Z,25.40
2022-10-09T06:26:57.702Z,25.50
2022-10-09T06:29:26.302Z,25.70
2022-10-09T06:31:54.438Z,25.70
2022-10-09T06:34:22.636Z,25.70
2022-10-09T06:36:50.897Z,25.50
2022-10-09T06:39:19.063Z,25.40
2022-10-09T06:41:47.304Z,25.40
2022-10-09T06:44:31.365Z,25.60
2022-10-09T06:46:59.591Z,25.80
2022-10-09T06:49:27.828Z,25.90
2022-10-09T06:51:55.938Z,25.80
2022-10-09T06:54:24.158Z,25.90
2022-10-09T06:56:54.008Z,25.90
2022-10-09T06:59:22.383Z,25.90
2022-10-09T07:01:50.625Z,25.70
2022-10-09T07:04:18.809Z,25.70
2022-10-09T07:06:47.169Z,25.80
2022-10-09T07:09:16.240Z,25.90
2022-10-09T07:11:47.491Z,26.00
2022-10-09T07:14:16.128Z,26.40
2022-10-09T07:16:46.232Z,26.50
2022-10-09T07:19:16.260Z,26.90
2022-10-09T07:21:46.476Z,26.70
2022-10-09T07:24:14.750Z,26.50
2022-10-09T07:26:46.191Z,26.40
2022-10-09T07:29:16.755Z,26.30
2022-10-09T07:31:45.739Z,26.30
2022-10-09T07:34:13.767Z,26.40
2022-10-09T07:36:42.037Z,26.50
2022-10-09T07:39:10.184Z,26.80
2022-10-09T07:41:38.218Z,27.40
2022-10-09T07:44:06.493Z,28.00
2022-10-09T07:46:34.655Z,28.80
2022-10-09T07:49:03.491Z,30.20
2022-10-09T07:51:32.587Z,29.00
2022-10-09T07:54:01.411Z,27.50
2022-10-09T07:56:34.831Z,27.50
2022-10-09T07:59:06.158Z,27.20
2022-10-09T08:01:35.753Z,27.50
2022-10-09T08:04:04.829Z,27.60
2022-10-09T08:06:33.610Z,28.10
2022-10-09T08:09:03.400Z,28.20
2022-10-09T08:11:31.695Z,28.20
2022-10-09T08:14:00.025Z,28.10
2022-10-09T08:16:29.142Z,27.80
2022-10-09T08:19:01.574Z,28.00
2022-10-09T08:21:29.984Z,28.00
2022-10-09T08:23:59.251Z,27.90
2022-10-09T08:26:30.376Z,28.00
2022-10-09T08:29:03.550Z,28.20
2022-10-09T08:31:32.514Z,29.10
2022-10-09T08:34:02.427Z,30.60
2022-10-09T08:36:31.412Z,34.20
2022-10-09T08:38:59.763Z,36.40
2022-10-09T08:41:38.817Z,34.60
2022-10-09T08:44:25.011Z,34.10
2022-10-09T08:47:04.708Z,34.50
2022-10-09T08:49:59.975Z,32.20
2022-10-09T08:53:09.322Z,30.80
2022-10-09T08:55:44.549Z,30.30
2022-10-09T08:58:17.901Z,29.50
2022-10-09T09:00:53.236Z,29.50
2022-10-09T09:03:37.620Z,29.10
2022-10-09T09:06:28.792Z,29.10
2022-10-09T09:09:29.325Z,29.00
2022-10-09T09:12:13.044Z,29.10
2022-10-09T09:14:41.241Z,29.20
2022-10-09T09:17:43.109Z,31.30
2022-10-09T09:20:35.079Z,32.80
2022-10-09T09:23:03.380Z,33.00
2022-10-09T09:25:37.342Z,32.60
2022-10-09T09:28:29.953Z,32.40
2022-10-09T09:31:11.767Z,32.30
2022-10-09T09:33:45.095Z,31.40
2022-10-09T09:36:31.484Z,31.40
2022-10-09T09:39:49.899Z,31.50
2022-10-09T09:41:48.216Z,31.00
2022-10-09T09:44:18.023Z,30.70
2022-10-09T09:46:48.456Z,30.40
2022-10-09T09:49:18.559Z,30.10
2022-10-09T09:51:48.802Z,30.20
2022-10-09T09:54:29.817Z,30.00
2022-10-09T09:57:12.810Z,30.30
2022-10-09T09:59:44.470Z,30.60
2022-10-09T10:02:20.330Z,30.70
2022-10-09T10:05:02.795Z,30.80
2022-10-09T10:07:39.095Z,31.00
2022-10-09T10:10:14.248Z,31.10
2022-10-09T10:12:44.814Z,31.40
2022-10-09T10:15:33.316Z,31.70
2022-10-09T10:18:13.492Z,32.10
2022-10-09T10:21:07.399Z,32.30
2022-10-09T10:23:39.855Z,32.30
2022-10-09T10:26:20.474Z,31.20
2022-10-09T10:29:12.378Z,31.20
2022-10-09T10:31:52.864Z,31.60
2022-10-09T10:34:26.679Z,31.50
2022-10-09T10:37:06.598Z,31.60
2022-10-09T10:39:52.767Z,32.20
2022-10-09T10:42:28.507Z,32.60
2022-10-09T10:45:25.754Z,32.40
2022-10-09T10:47:58.967Z,32.20
2022-10-09T10:50:34.099Z,32.00
2022-10-09T10:53:20.093Z,32.40
2022-10-09T10:56:04.186Z,32.20
2022-10-09T10:58:48.340Z,32.20
2022-10-09T11:01:38.854Z,32.20
2022-10-09T11:04:14.067Z,31.90
2022-10-09T11:07:17.477Z,31.50
2022-10-09T11:10:07.178Z,30.90
2022-10-09T11:12:53.526Z,30.80
2022-10-09T11:15:40.255Z,30.70
2022-10-09T11:18:49.424Z,30.60
2022-10-09T11:21:44.941Z,30.40
2022-10-09T11:24:29.714Z,30.60
2022-10-09T11:27:14.422Z,30.90
2022-10-09T11:30:05.491Z,31.20
2022-10-09T11:32:51.700Z,31.30
2022-10-09T11:35:48.075Z,31.80
2022-10-09T11:38:29.433Z,32.30
2022-10-09T11:41:01.529Z,32.60
2022-10-09T11:43:45.078Z,32.70
2022-10-09T11:46:42.590Z,32.60
2022-10-09T11:49:23.542Z,32.30
2022-10-09T11:52:03.977Z,32.20
2022-10-09T11:54:34.019Z,32.00
2022-10-09T11:57:06.584Z,31.90
2022-10-09T11:59:37.359Z,31.80
2022-10-09T12:02:35.014Z,31.70
2022-10-09T12:05:16.355Z,31.30
2022-10-09T12:07:44.584Z,30.80
2022-10-09T12:10:24.979Z,31.20
2022-10-09T12:13:06.379Z,31.30
2022-10-09T12:16:00.678Z,31.50
2022-10-09T12:18:38.867Z,31.40
2022-10-09T12:21:19.135Z,31.50
2022-10-09T12:23:48.540Z,31.60
2022-10-09T12:26:18.454Z,31.60
2022-10-09T12:28:52.910Z,31.10
2022-10-09T12:31:29.976Z,31.10
2022-10-09T12:34:13.912Z,30.90
2022-10-09T12:36:42.257Z,30.60
2022-10-09T12:39:15.037Z,30.60
2022-10-09T12:41:47.027Z,30.60
2022-10-09T12:44:34.450Z,30.50
2022-10-09T12:47:15.248Z,30.40
2022-10-09T12:49:43.377Z,30.10
2022-10-09T12:52:16.252Z,29.70
2022-10-09T12:54:45.535Z,29.80
2022-10-09T12:57:18.292Z,29.90
2022-10-09T12:59:47.913Z,30.30
2022-10-09T13:02:16.728Z,30.40
2022-10-09T13:04:59.568Z,30.40
2022-10-09T13:07:30.370Z,30.40
2022-10-09T13:10:08.931Z,30.70
2022-10-09T13:12:38.132Z,31.00
2022-10-09T13:15:27.210Z,31.40
2022-10-09T13:17:55.455Z,31.80
2022-10-09T13:20:31.978Z,31.90
2022-10-09T13:23:01.582Z,31.90
2022-10-09T13:25:35.483Z,31.60
2022-10-09T13:28:04.782Z,31.90
2022-10-09T13:30:33.548Z,32.10
2022-10-09T13:33:01.718Z,32.10
2022-10-09T13:35:29.800Z,32.30
2022-10-09T13:37:57.899Z,32.30
2022-10-09T13:40:26.170Z,32.20
2022-10-09T13:42:56.656Z,32.10
2022-10-09T13:45:25.003Z,32.30
2022-10-09T13:47:53.306Z,32.20
2022-10-09T13:50:21.540Z,32.60
2022-10-09T13:52:49.747Z,32.40
2022-10-09T13:55:18.060Z,32.10
2022-10-09T13:57:47.322Z,31.70
2022-10-09T14:00:15.806Z,31.60
2022-10-09T14:02:43.958Z,31.20
2022-10-09T14:05:12.087Z,31.20
2022-10-09T14:07:40.334Z,31.10
2022-10-09T14:10:08.741Z,30.90
2022-10-09T14:12:37.048Z,30.50
2022-10-09T14:15:05.705Z,30.40
2022-10-09T14:17:33.988Z,30.50
2022-10-09T14:20:01.980Z,30.30
2022-10-09T14:22:30.087Z,30.20
2022-10-09T14:24:58.206Z,29.90
2022-10-09T14:27:26.361Z,30.00
2022-10-09T14:29:56.732Z,30.00
2022-10-09T14:32:25.917Z,30.30
2022-10-09T14:34:53.960Z,30.50
2022-10-09T14:37:40.639Z,30.60
2022-10-09T14:40:11.164Z,30.50
2022-10-09T14:42:40.054Z,30.60
2022-10-09T14:45:09.113Z,30.70
2022-10-09T14:47:37.321Z,30.90
2022-10-09T14:50:05.679Z,30.80
2022-10-09T14:52:34.171Z,30.70
2022-10-09T14:55:02.335Z,30.30
2022-10-09T14:57:35.150Z,30.40
2022-10-09T15:00:05.851Z,30.90
2022-10-09T15:02:34.144Z,30.80
2022-10-09T15:05:02.413Z,30.30
2022-10-09T15:07:30.624Z,30.10
2022-10-09T15:09:58.943Z,30.10
2022-10-09T15:12:26.973Z,30.20
2022-10-09T15:14:55.195Z,30.40
2022-10-09T15:17:23.299Z,31.00
2022-10-09T15:19:51.310Z,30.60
2022-10-09T15:22:19.513Z,30.60
2022-10-09T15:24:48.058Z,30.60
2022-10-09T15:27:16.264Z,30.70
2022-10-09T15:29:44.482Z,30.70
2022-10-09T15:32:12.595Z,30.80
2022-10-09T15:34:41.302Z,30.80
2022-10-09T15:37:09.559Z,30.80
2022-10-09T15:39:37.672Z,30.60
2022-10-09T15:42:05.876Z,30.70
2022-10-09T15:44:34.067Z,30.50
2022-10-09T15:47:02.093Z,30.20
2022-10-09T15:49:30.378Z,30.30
2022-10-09T15:51:58.441Z,30.50
2022-10-09T15:54:26.800Z,30.60
2022-10-09T15:56:55.103Z,30.80
2022-10-09T15:59:23.420Z,31.00
2022-10-09T16:01:51.582Z,31.10
2022-10-09T16:04:19.838Z,31.10
2022-10-09T16:06:47.938Z,31.00
2022-10-09T16:09:16.265Z,30.60
2022-10-09T16:11:44.368Z,30.30
2022-10-09T16:14:12.605Z,30.20
2022-10-09T16:16:40.716Z,30.60
2022-10-09T16:19:08.847Z,31.00
2022-10-09T16:21:37.033Z,30.60
2022-10-09T16:24:05.311Z,30.70
2022-10-09T16:26:33.453Z,30.60
2022-10-09T16:29:01.827Z,30.80
2022-10-09T16:31:32.921Z,30.50
2022-10-09T16:34:01.771Z,30.40
2022-10-09T16:36:29.918Z,30.30
2022-10-09T16:38:58.992Z,30.00
2022-10-09T16:41:27.461Z,30.00
2022-10-09T16:43:57.722Z,30.20
2022-10-09T16:49:07.205Z,29.80
2022-10-09T16:51:36.974Z,29.90
2022-10-09T16:54:06.756Z,30.10
2022-10-09T16:56:38.476Z,30.10
2022-10-09T16:59:09.070Z,29.90
2022-10-09T17:01:37.763Z,29.80
2022-10-09T17:04:05.953Z,29.50
2022-10-09T17:06:34.373Z,29.60
2022-10-09T17:09:02.850Z,29.40
2022-10-09T17:11:31.288Z,29.30
2022-10-09T17:13:59.816Z,29.30
2022-10-09T17:16:31.733Z,29.30
2022-10-09T17:18:59.950Z,29.40
2022-10-09T17:21:32.841Z,29.40
2022-10-09T17:24:04.655Z,29.40
2022-10-09T17:26:32.815Z,29.00
2022-10-09T17:29:02.079Z,28.90
2022-10-09T17:31:31.275Z,29.10
2022-10-09T17:34:02.414Z,29.10
2022-10-09T17:36:34.143Z,29.00
2022-10-09T17:39:02.765Z,29.30
2022-10-09T17:41:31.819Z,29.50
2022-10-09T17:44:00.384Z,29.40
2022-10-09T17:46:30.025Z,29.30
2022-10-09T17:48:59.503Z,29.10
2022-10-09T17:51:29.136Z,28.80
2022-10-09T17:54:04.935Z,28.80
2022-10-09T17:56:36.269Z,28.70
2022-10-09T17:59:04.997Z,28.60
2022-10-09T18:01:33.347Z,28.60
2022-10-09T18:04:01.787Z,28.70
2022-10-09T18:06:33.235Z,28.60
2022-10-09T18:09:02.133Z,28.60
2022-10-09T18:11:30.279Z,28.60
2022-10-09T18:13:58.435Z,28.50
2022-10-09T18:16:34.943Z,28.70
2022-10-09T18:19:13.091Z,28.60
2022-10-09T18:21:43.980Z,28.40
2022-10-09T18:24:12.977Z,28.20
2022-10-09T18:26:42.108Z,28.40
2022-10-09T18:29:10.256Z,28.40
2022-10-09T18:31:38.438Z,28.30
2022-10-09T18:34:06.602Z,28.20
2022-10-09T18:36:35.047Z,27.90
2022-10-09T18:39:07.705Z,28.10
2022-10-09T18:41:37.198Z,28.20
2022-10-09T18:44:06.355Z,28.10
2022-10-09T18:46:42.550Z,28.00
2022-10-09T18:49:12.692Z,28.10
2022-10-09T18:51:43.027Z,28.10
2022-10-09T18:54:15.740Z,28.10
2022-10-09T18:56:46.834Z,28.00
2022-10-09T18:59:18.866Z,27.80
2022-10-09T19:01:47.004Z,28.10
2022-10-09T19:04:15.272Z,28.10
2022-10-09T19:06:43.611Z,28.00
2022-10-09T19:09:11.967Z,28.00
2022-10-09T19:11:40.492Z,28.20
2022-10-09T19:14:08.622Z,28.20
2022-10-09T19:16:36.847Z,28.20
2022-10-09T19:19:05.135Z,28.10
2022-10-09T19:21:33.317Z,27.90
2022-10-09T19:24:01.571Z,28.00
2022-10-09T19:26:30.493Z,28.10
2022-10-09T19:28:58.560Z,28.00
2022-10-09T19:31:27.025Z,28.00
2022-10-09T19:33:55.218Z,28.10
2022-10-09T19:36:23.516Z,28.20
2022-10-09T19:38:51.619Z,28.10
2022-10-09T19:41:20.006Z,28.00
2022-10-09T19:43:48.204Z,27.90
2022-10-09T19:46:18.998Z,28.00
2022-10-09T19:48:47.723Z,28.00
2022-10-09T19:51:21.467Z,27.80
2022-10-09T19:53:50.372Z,28.00
2022-10-09T19:56:24.713Z,27.90
2022-10-09T19:58:54.072Z,28.10
2022-10-09T20:01:25.251Z,28.10
2022-10-09T20:04:01.220Z,27.80
2022-10-09T20:06:29.907Z,27.80
2022-10-09T20:08:58.426Z,28.00
2022-10-09T20:11:27.374Z,28.00
2022-10-09T20:13:56.427Z,27.70
2022-10-09T20:16:25.887Z,27.90
2022-10-09T20:18:55.954Z,28.00
2022-10-09T20:21:24.152Z,28.00
2022-10-09T20:23:52.815Z,28.10
2022-10-09T20:26:22.190Z,27.90
2022-10-09T20:28:51.166Z,27.70
2022-10-09T20:31:22.965Z,27.80
2022-10-09T20:33:51.275Z,27.80
2022-10-09T20:36:24.536Z,27.70
2022-10-09T20:38:54.479Z,27.70
2022-10-09T20:41:22.789Z,27.90
2022-10-09T20:43:55.324Z,28.00
2022-10-09T20:46:24.421Z,27.90
2022-10-09T20:48:53.339Z,27.80
2022-10-09T20:51:22.218Z,27.70
2022-10-09T20:53:55.327Z,27.70
2022-10-09T20:56:25.263Z,27.80
2022-10-09T20:58:54.311Z,27.80
2022-10-09T21:01:23.314Z,27.70
2022-10-09T21:03:52.581Z,27.70
2022-10-09T21:06:22.620Z,27.60
2022-10-09T21:08:51.256Z,27.70
2022-10-09T21:11:20.291Z,27.80
2022-10-09T21:13:49.595Z,27.70
2022-10-09T21:16:22.229Z,27.60
2022-10-09T21:18:55.149Z,27.70
2022-10-09T21:21:23.876Z,27.70
2022-10-09T21:23:54.368Z,27.70
2022-10-09T21:26:24.475Z,27.70
2022-10-09T21:28:58.212Z,27.80
2022-10-09T21:31:29.517Z,27.90
2022-10-09T21:33:58.879Z,27.90
2022-10-09T21:36:37.096Z,27.90
2022-10-09T21:39:07.282Z,27.70
2022-10-09T21:41:36.383Z,27.60
2022-10-09T21:44:05.954Z,27.70
2022-10-09T21:46:35.499Z,27.80
2022-10-09T21:49:07.487Z,27.70
2022-10-09T21:51:36.124Z,27.70
2022-10-09T21:54:04.467Z,28.00
2022-10-09T21:56:32.531Z,28.20
2022-10-09T21:59:00.668Z,28.10
2022-10-09T22:01:29.062Z,27.90
2022-10-09T22:03:57.254Z,27.90
2022-10-09T22:06:25.476Z,27.70
2022-10-09T22:08:54.561Z,27.50
2022-10-09T22:11:22.769Z,27.50
2022-10-09T22:13:51.023Z,27.50
2022-10-09T22:16:19.158Z,27.50
2022-10-09T22:18:47.451Z,27.40
2022-10-09T22:21:16.735Z,27.50
2022-10-09T22:23:45.049Z,27.50
2022-10-09T22:26:16.174Z,27.50
2022-10-09T22:28:45.528Z,27.60
2022-10-09T22:31:17.262Z,27.60
2022-10-09T22:33:49.840Z,27.80
2022-10-09T22:36:20.417Z,27.60
2022-10-09T22:38:48.914Z,27.50
2022-10-09T22:41:19.911Z,27.40
2022-10-09T22:43:53.166Z,27.60
2022-10-09T22:46:25.961Z,27.90
2022-10-09T22:48:54.815Z,27.60
2022-10-09T22:51:24.296Z,27.40
2022-10-09T22:53:52.590Z,27.40
2022-10-09T22:56:23.589Z,27.60
2022-10-09T22:58:53.121Z,27.80
2022-10-09T23:01:24.090Z,27.80
2022-10-09T23:03:52.269Z,27.60
2022-10-09T23:06:21.273Z,27.50
2022-10-09T23:08:49.789Z,27.40
2022-10-09T23:11:19.514Z,27.30
2022-10-09T23:13:48.417Z,27.40
2022-10-09T23:16:17.250Z,27.50
2022-10-09T23:18:45.455Z,27.50
2022-10-09T23:21:16.692Z,27.40
2022-10-09T23:23:46.599Z,27.50
2022-10-09T23:26:17.958Z,27.60
2022-10-09T23:28:51.558Z,27.70
2022-10-09T23:31:20.090Z,27.60
2022-10-09T23:33:48.436Z,27.60
2022-10-09T23:36:19.518Z,27.50
2022-10-09T23:38:48.239Z,27.50
2022-10-09T23:41:21.569Z,27.60
2022-10-09T23:43:51.051Z,27.60
2022-10-09T23:46:24.761Z,27.60
2022-10-09T23:48:53.468Z,27.50
2022-10-09T23:51:23.069Z,27.50
2022-10-09T23:53:51.579Z,27.60
2022-10-09T23:56:28.818Z,27.60
2022-10-09T23:58:58.897Z,27.70
